Time;durP1;ratioP1;P1;durP2;ratioP2;P2;SDS_P1;SDS_P2;PMS_P1;PMS_P2;Temp;Humidity;BMP_temperature;BMP_pressure;BME280_temperature;BME280_humidity;BME280_pressure;Samples;Min_cycle;Max_cycle;Signal;HPM_P1;HPM_P2
2022/05/06 00:00:11;;;;;;;;;;;11.40;91.40;;;;;;6195173;23;19911;-78
2022/05/06 00:02:37;;;;;;;;;;;11.50;91.20;;;;;;6194746;23;19982;-80
2022/05/06 00:05:03;;;;;;;;;;;11.50;91.10;;;;;;6195358;23;20344;-78
2022/05/06 00:07:29;;;;;;;;;;;11.50;91.50;;;;;;6194976;23;19911;-80
2022/05/06 00:09:55;;;;;;;;;;;11.50;91.20;;;;;;6220410;23;19912;-79
2022/05/06 00:12:20;;;;;;;;;;;11.50;90.90;;;;;;6220232;22;20273;-80
2022/05/06 00:14:46;;;;;;;;;;;11.50;91.50;;;;;;6194977;23;19966;-79
2022/05/06 00:17:12;;;;;;;;;;;11.60;91.00;;;;;;6193895;23;20373;-79
2022/05/06 00:19:37;;;;;;;;;;;11.60;90.80;;;;;;6194718;23;19934;-80
2022/05/06 00:22:03;;;;;;;;;;;11.60;91.10;;;;;;6194953;23;20298;-80
2022/05/06 00:24:29;;;;;;;;;;;11.50;90.90;;;;;;6194405;23;19916;-78
2022/05/06 00:26:55;;;;;;;;;;;11.40;91.10;;;;;;6195241;23;20000;-79
2022/05/06 00:29:21;;;;;;;;;;;11.50;90.80;;;;;;6194916;23;19912;-80
2022/05/06 00:31:47;;;;;;;;;;;11.50;91.10;;;;;;6193495;23;19927;-80
2022/05/06 00:34:12;;;;;;;;;;;11.50;90.80;;;;;;6194644;23;19912;-80
2022/05/06 00:36:38;;;;;;;;;;;11.50;91.00;;;;;;6194819;23;20233;-78
2022/05/06 00:39:06;;;;;;;;;;;11.50;90.90;;;;;;6219868;23;20230;-80
2022/05/06 00:41:33;;;;;;;;;;;11.50;90.90;;;;;;6220001;23;19911;-79
2022/05/06 00:44:07;;;;;;;;;;;11.50;90.60;;;;;;6194507;23;19916;-81
2022/05/06 00:46:35;;;;;;;;;;;11.50;91.10;;;;;;6219175;23;19990;-78
2022/05/06 00:49:00;;;;;;;;;;;11.50;91.40;;;;;;6219824;23;19912;-80
2022/05/06 00:51:29;;;;;;;;;;;11.50;90.80;;;;;;6194962;23;19916;-77
2022/05/06 00:53:56;;;;;;;;;;;11.40;91.30;;;;;;6219566;23;19911;-80
2022/05/06 00:56:27;;;;;;;;;;;11.50;91.20;;;;;;6219012;23;19912;-80
2022/05/06 00:58:55;;;;;;;;;;;11.50;90.80;;;;;;6219606;23;19918;-80
2022/05/06 01:01:21;;;;;;;;;;;11.50;90.90;;;;;;6194681;23;19986;-78
2022/05/06 01:03:47;;;;;;;;;;;11.50;91.00;;;;;;6193668;23;19951;-80
2022/05/06 01:06:16;;;;;;;;;;;11.50;91.00;;;;;;6195731;23;19916;-81
2022/05/06 01:08:42;;;;;;;;;;;11.50;90.80;;;;;;6198211;23;19912;-78
2022/05/06 01:11:11;;;;;;;;;;;11.40;90.80;;;;;;6209655;23;19911;-73
2022/05/06 01:13:43;;;;;;;;;;;11.40;90.60;;;;;;6215609;23;19915;-74
2022/05/06 01:16:10;;;;;;;;;;;11.40;90.90;;;;;;6201530;23;19912;-80
2022/05/06 01:18:38;;;;;;;;;;;11.30;91.20;;;;;;6194562;23;19911;-80
2022/05/06 01:21:04;;;;;;;;;;;11.40;91.10;;;;;;6218907;23;19911;-79
2022/05/06 01:23:30;;;;;;;;;;;11.30;90.90;;;;;;6219011;23;19974;-81
2022/05/06 01:25:56;;;;;;;;;;;11.30;91.30;;;;;;6218816;23;20314;-80
2022/05/06 01:28:23;;;;;;;;;;;11.30;91.40;;;;;;6194807;23;19911;-80
2022/05/06 01:30:49;;;;;;;;;;;11.30;91.20;;;;;;6193439;23;19911;-78
2022/05/06 01:33:19;;;;;;;;;;;11.30;91.50;;;;;;6219546;23;19990;-81
2022/05/06 01:35:46;;;;;;;;;;;11.20;91.80;;;;;;6196343;23;19918;-78
2022/05/06 01:38:17;;;;;;;;;;;11.20;91.20;;;;;;6221511;23;19962;-80
2022/05/06 01:40:46;;;;;;;;;;;11.20;92.10;;;;;;6196908;23;19912;-78
2022/05/06 01:43:16;;;;;;;;;;;11.30;91.60;;;;;;6221589;23;19915;-78
2022/05/06 01:45:42;;;;;;;;;;;11.20;91.60;;;;;;6195593;23;19911;-80
2022/05/06 01:48:09;;;;;;;;;;;11.20;91.80;;;;;;6220143;23;20216;-77
2022/05/06 01:50:36;;;;;;;;;;;11.20;91.70;;;;;;6195289;23;19986;-80
2022/05/06 01:53:02;;;;;;;;;;;11.30;92.00;;;;;;6195240;23;19937;-80
2022/05/06 01:55:28;;;;;;;;;;;11.10;92.00;;;;;;6221577;23;19912;-79
2022/05/06 01:57:53;;;;;;;;;;;11.10;92.30;;;;;;6196701;23;20233;-78
2022/05/06 02:00:19;;;;;;;;;;;11.10;91.80;;;;;;6196242;23;19911;-80
2022/05/06 02:02:44;;;;;;;;;;;11.10;92.20;;;;;;6196505;23;19946;-77
2022/05/06 02:05:19;;;;;;;;;;;11.00;92.20;;;;;;6196455;23;19915;-80
2022/05/06 02:07:46;;;;;;;;;;;11.00;92.10;;;;;;6221175;23;19918;-80
2022/05/06 02:10:14;;;;;;;;;;;11.00;92.40;;;;;;6225782;23;19918;-78
2022/05/06 02:12:40;;;;;;;;;;;11.10;92.10;;;;;;6226686;22;19912;-79
2022/05/06 02:15:06;;;;;;;;;;;10.90;92.50;;;;;;6201704;23;19916;-79
2022/05/06 02:17:31;;;;;;;;;;;10.80;92.20;;;;;;6196332;23;20235;-78
2022/05/06 02:19:57;;;;;;;;;;;10.70;92.00;;;;;;6196019;23;19919;-79
2022/05/06 02:22:27;;;;;;;;;;;10.70;92.20;;;;;;6195744;22;20230;-78
2022/05/06 02:24:55;;;;;;;;;;;10.70;92.00;;;;;;6196719;23;19916;-78
2022/05/06 02:27:21;;;;;;;;;;;10.70;92.20;;;;;;6196396;23;19911;-80
2022/05/06 02:35:16;;;;;;;;;;;10.60;92.10;;;;;;6221087;23;19918;-80
2022/05/06 02:37:42;;;;;;;;;;;10.60;92.70;;;;;;6198071;23;19911;-82
2022/05/06 02:40:11;;;;;;;;;;;10.60;92.60;;;;;;6199660;23;19965;-82
2022/05/06 02:42:36;;;;;;;;;;;10.60;92.60;;;;;;6265536;22;19916;-74
2022/05/06 02:45:02;;;;;;;;;;;10.50;92.60;;;;;;6210455;23;19961;-80
2022/05/06 02:47:29;;;;;;;;;;;10.60;92.90;;;;;;6196507;23;19912;-80
2022/05/06 02:49:54;;;;;;;;;;;10.60;92.60;;;;;;6195365;23;19919;-77
2022/05/06 02:52:20;;;;;;;;;;;10.60;92.90;;;;;;6195798;23;19912;-79
2022/05/06 02:54:46;;;;;;;;;;;10.60;93.50;;;;;;6195950;23;19969;-80
2022/05/06 02:57:11;;;;;;;;;;;10.60;93.20;;;;;;6195757;23;19957;-80
2022/05/06 02:59:40;;;;;;;;;;;10.60;93.20;;;;;;6194383;23;19919;-79
2022/05/06 03:02:06;;;;;;;;;;;10.60;93.00;;;;;;6220444;23;19912;-78
2022/05/06 03:04:31;;;;;;;;;;;10.60;93.10;;;;;;6220580;23;19990;-78
2022/05/06 03:06:57;;;;;;;;;;;10.60;92.80;;;;;;6221271;23;20365;-79
2022/05/06 03:09:23;;;;;;;;;;;10.60;92.80;;;;;;6220094;23;19916;-82
2022/05/06 03:11:49;;;;;;;;;;;10.60;93.20;;;;;;6221070;23;19918;-79
2022/05/06 03:14:15;;;;;;;;;;;10.60;93.30;;;;;;6207740;23;20219;-81
2022/05/06 03:16:40;;;;;;;;;;;10.50;93.60;;;;;;6202114;23;19911;-79
2022/05/06 03:19:06;;;;;;;;;;;10.50;93.60;;;;;;6203644;23;19915;-77
2022/05/06 03:21:32;;;;;;;;;;;10.50;93.40;;;;;;6238527;23;19912;-76
2022/05/06 03:23:58;;;;;;;;;;;10.50;93.40;;;;;;6198323;23;20330;-78
2022/05/06 03:26:24;;;;;;;;;;;10.60;93.40;;;;;;6195140;23;20218;-79
2022/05/06 03:28:52;;;;;;;;;;;10.50;93.80;;;;;;6195670;23;19911;-81
2022/05/06 03:31:18;;;;;;;;;;;10.50;93.90;;;;;;6195621;23;19911;-81
2022/05/06 03:33:44;;;;;;;;;;;10.50;93.50;;;;;;6219719;23;20315;-78
2022/05/06 03:36:10;;;;;;;;;;;10.30;93.20;;;;;;6194746;23;20280;-81
2022/05/06 03:38:35;;;;;;;;;;;10.50;93.40;;;;;;6220757;23;19998;-79
2022/05/06 03:41:01;;;;;;;;;;;10.50;93.30;;;;;;6195385;23;19982;-79
2022/05/06 03:43:29;;;;;;;;;;;10.60;93.40;;;;;;6195169;23;19919;-81
2022/05/06 03:45:55;;;;;;;;;;;10.50;93.60;;;;;;6195012;23;19918;-80
2022/05/06 03:48:24;;;;;;;;;;;10.50;93.50;;;;;;6195152;23;19916;-81
2022/05/06 03:53:37;;;;;;;;;;;10.50;93.30;;;;;;6220534;23;19922;-79
2022/05/06 03:56:06;;;;;;;;;;;10.50;93.00;;;;;;6195487;23;19947;-80
2022/05/06 03:58:35;;;;;;;;;;;10.50;92.90;;;;;;6219781;23;19911;-78
2022/05/06 04:01:02;;;;;;;;;;;10.50;92.90;;;;;;6219573;23;20208;-78
2022/05/06 04:03:29;;;;;;;;;;;10.50;92.90;;;;;;6219908;23;20484;-78
2022/05/06 04:05:54;;;;;;;;;;;10.50;93.20;;;;;;6195285;23;19918;-78
2022/05/06 04:08:20;;;;;;;;;;;10.50;93.20;;;;;;6195490;23;19912;-80
2022/05/06 04:10:45;;;;;;;;;;;10.50;93.30;;;;;;6205500;23;20318;-71
2022/05/06 04:13:11;;;;;;;;;;;10.50;93.20;;;;;;6239533;23;19918;-71
2022/05/06 04:15:38;;;;;;;;;;;10.40;93.20;;;;;;6203497;23;19961;-77
2022/05/06 04:18:04;;;;;;;;;;;10.40;92.80;;;;;;6219909;23;19981;-79
2022/05/06 04:23:29;;;;;;;;;;;10.40;93.00;;;;;;6220180;23;19916;-81
2022/05/06 04:25:55;;;;;;;;;;;10.40;93.20;;;;;;6195084;23;19950;-79
2022/05/06 04:28:21;;;;;;;;;;;10.40;93.60;;;;;;6219875;23;19946;-77
2022/05/06 04:30:47;;;;;;;;;;;10.40;93.20;;;;;;6219835;23;19919;-79
2022/05/06 04:33:12;;;;;;;;;;;10.40;93.20;;;;;;6194495;23;19919;-79
2022/05/06 04:35:40;;;;;;;;;;;10.50;93.70;;;;;;6195201;23;19918;-78
2022/05/06 04:38:09;;;;;;;;;;;10.40;93.70;;;;;;6218609;23;20337;-78
2022/05/06 04:40:34;;;;;;;;;;;10.50;93.60;;;;;;6194892;23;19912;-76
2022/05/06 04:43:06;;;;;;;;;;;10.50;93.50;;;;;;6194029;23;19916;-77
2022/05/06 04:45:35;;;;;;;;;;;10.80;93.90;;;;;;6194159;23;19912;-79
2022/05/06 04:48:01;;;;;;;;;;;10.50;93.70;;;;;;6219352;23;19965;-79
2022/05/06 04:50:27;;;;;;;;;;;10.50;93.40;;;;;;6193583;23;19947;-79
2022/05/06 04:52:53;;;;;;;;;;;10.50;93.70;;;;;;6194358;22;20258;-78
2022/05/06 04:55:19;;;;;;;;;;;10.50;93.80;;;;;;6194454;23;19958;-80
2022/05/06 04:57:44;;;;;;;;;;;10.60;93.30;;;;;;6194609;23;19947;-78
2022/05/06 05:00:10;;;;;;;;;;;10.60;93.50;;;;;;6219739;23;20305;-81
2022/05/06 05:02:37;;;;;;;;;;;10.60;93.40;;;;;;6195156;22;19950;-79
2022/05/06 05:05:03;;;;;;;;;;;10.70;93.20;;;;;;6219588;23;19939;-78
2022/05/06 05:07:29;;;;;;;;;;;10.70;93.20;;;;;;6220157;23;19923;-77
2022/05/06 05:09:54;;;;;;;;;;;10.80;93.00;;;;;;6223187;23;19916;-80
2022/05/06 05:12:20;;;;;;;;;;;10.80;93.40;;;;;;6198073;23;19919;-79
2022/05/06 05:14:46;;;;;;;;;;;10.80;93.50;;;;;;6197946;23;19929;-79
2022/05/06 05:17:12;;;;;;;;;;;10.80;93.00;;;;;;6197135;23;20334;-78
2022/05/06 05:19:38;;;;;;;;;;;10.90;93.00;;;;;;6173450;23;19962;-78
2022/05/06 05:22:04;;;;;;;;;;;11.00;93.00;;;;;;6198400;23;19983;-79
2022/05/06 05:24:30;;;;;;;;;;;11.00;92.80;;;;;;6222574;23;19916;-75
2022/05/06 05:26:57;;;;;;;;;;;11.10;93.00;;;;;;6223223;23;19994;-75
2022/05/06 05:29:23;;;;;;;;;;;11.10;92.60;;;;;;6198214;23;19918;-77
2022/05/06 05:31:49;;;;;;;;;;;11.10;92.80;;;;;;6223219;23;19911;-75
2022/05/06 05:34:18;;;;;;;;;;;11.10;92.50;;;;;;6223145;23;19911;-77
2022/05/06 05:36:44;;;;;;;;;;;11.30;92.60;;;;;;6223219;23;20318;-75
2022/05/06 05:39:11;;;;;;;;;;;11.10;92.30;;;;;;6223343;23;19916;-76
2022/05/06 05:41:38;;;;;;;;;;;11.20;92.40;;;;;;6204148;23;19916;-73
2022/05/06 05:49:35;;;;;;;;;;;11.20;92.00;;;;;;6221483;23;19911;-75
2022/05/06 05:52:01;;;;;;;;;;;11.30;92.30;;;;;;6196419;23;19911;-76
2022/05/06 05:54:28;;;;;;;;;;;11.20;92.10;;;;;;6197191;23;19916;-76
2022/05/06 05:56:54;;;;;;;;;;;11.30;92.40;;;;;;6222639;23;20322;-76
2022/05/06 05:59:20;;;;;;;;;;;11.30;92.10;;;;;;6222417;23;19916;-77
2022/05/06 06:01:46;;;;;;;;;;;11.30;91.80;;;;;;6197900;23;19916;-78
2022/05/06 06:04:11;;;;;;;;;;;11.40;91.90;;;;;;6222400;23;19915;-78
2022/05/06 06:06:37;;;;;;;;;;;11.40;92.10;;;;;;6223017;23;19916;-76
2022/05/06 06:09:03;;;;;;;;;;;11.40;91.60;;;;;;6197482;23;19915;-76
2022/05/06 06:11:28;;;;;;;;;;;11.40;91.70;;;;;;6223029;23;19915;-75
2022/05/06 06:13:54;;;;;;;;;;;11.40;91.70;;;;;;6222902;23;19915;-75
2022/05/06 06:16:19;;;;;;;;;;;11.40;91.80;;;;;;6222915;23;19916;-75
2022/05/06 06:18:46;;;;;;;;;;;11.60;91.70;;;;;;6222970;23;19915;-75
2022/05/06 06:21:12;;;;;;;;;;;11.50;91.70;;;;;;6220892;23;19999;-75
2022/05/06 06:23:38;;;;;;;;;;;11.50;91.40;;;;;;6220838;23;19991;-74
2022/05/06 06:26:03;;;;;;;;;;;11.60;91.30;;;;;;6221407;23;19974;-76
2022/05/06 06:28:29;;;;;;;;;;;11.60;91.40;;;;;;6196589;23;19990;-76
2022/05/06 06:30:54;;;;;;;;;;;11.60;91.20;;;;;;6221603;23;19916;-76
2022/05/06 06:33:20;;;;;;;;;;;11.70;91.30;;;;;;6221086;23;20321;-76
2022/05/06 06:35:46;;;;;;;;;;;11.80;91.30;;;;;;6221390;23;19919;-75
2022/05/06 06:38:11;;;;;;;;;;;11.80;91.10;;;;;;6196254;23;19916;-76
2022/05/06 06:40:37;;;;;;;;;;;12.00;90.90;;;;;;6196165;23;20229;-76
2022/05/06 06:43:04;;;;;;;;;;;12.00;90.70;;;;;;6195794;22;19998;-77
2022/05/06 06:45:30;;;;;;;;;;;12.00;90.30;;;;;;6221302;23;19919;-76
2022/05/06 06:47:57;;;;;;;;;;;12.10;90.40;;;;;;6221245;23;20357;-75
2022/05/06 06:50:25;;;;;;;;;;;12.30;90.10;;;;;;6220914;23;19985;-76
2022/05/06 06:52:51;;;;;;;;;;;12.40;90.00;;;;;;6220580;22;19911;-75
2022/05/06 06:55:17;;;;;;;;;;;12.40;89.50;;;;;;6195668;23;19915;-76
2022/05/06 06:57:43;;;;;;;;;;;12.60;88.70;;;;;;6195767;23;19954;-75
2022/05/06 07:00:09;;;;;;;;;;;12.70;88.00;;;;;;6195591;23;19915;-76
2022/05/06 07:02:36;;;;;;;;;;;12.90;88.60;;;;;;6220669;23;19911;-76
2022/05/06 07:05:02;;;;;;;;;;;12.90;86.90;;;;;;6220546;23;19965;-76
2022/05/06 07:12:56;;;;;;;;;;;13.20;86.00;;;;;;6227647;22;20354;-72
2022/05/06 07:15:27;;;;;;;;;;;13.40;84.40;;;;;;6202895;23;19915;-73
2022/05/06 07:17:52;;;;;;;;;;;13.50;85.20;;;;;;6223695;23;19965;-77
2022/05/06 07:20:18;;;;;;;;;;;13.70;84.20;;;;;;6195396;23;20211;-76
2022/05/06 07:22:43;;;;;;;;;;;13.80;83.40;;;;;;6220729;23;19915;-76
2022/05/06 07:25:09;;;;;;;;;;;13.80;81.50;;;;;;6195431;23;19916;-76
2022/05/06 07:27:35;;;;;;;;;;;13.80;82.10;;;;;;6195520;23;19918;-74
2022/05/06 07:30:02;;;;;;;;;;;13.90;82.50;;;;;;6220496;23;19912;-76
2022/05/06 07:32:27;;;;;;;;;;;13.90;82.40;;;;;;6195181;23;20333;-75
2022/05/06 07:34:53;;;;;;;;;;;14.00;82.00;;;;;;6220817;23;19920;-77
2022/05/06 07:37:18;;;;;;;;;;;14.00;82.50;;;;;;6195308;23;19939;-76
2022/05/06 07:39:44;;;;;;;;;;;14.10;81.50;;;;;;6220862;23;19915;-75
2022/05/06 07:42:11;;;;;;;;;;;14.20;80.60;;;;;;6195785;23;20318;-76
2022/05/06 07:44:37;;;;;;;;;;;14.30;80.70;;;;;;6195170;23;19998;-76
2022/05/06 07:47:02;;;;;;;;;;;14.40;80.90;;;;;;6220592;23;19996;-76
2022/05/06 07:49:28;;;;;;;;;;;14.50;79.90;;;;;;6195598;23;19916;-75
2022/05/06 07:51:53;;;;;;;;;;;14.60;79.40;;;;;;6220642;23;20231;-76
2022/05/06 07:54:19;;;;;;;;;;;14.70;78.60;;;;;;6220067;23;19916;-75
2022/05/06 07:56:45;;;;;;;;;;;14.70;78.60;;;;;;6248025;23;19916;-76
2022/05/06 07:59:11;;;;;;;;;;;14.80;78.40;;;;;;6247334;23;20034;-75
2022/05/06 08:04:34;;;;;;;;;;;15.00;76.90;;;;;;6220179;23;19922;-75
2022/05/06 08:07:00;;;;;;;;;;;15.10;77.10;;;;;;6220132;23;20336;-76
2022/05/06 08:09:26;;;;;;;;;;;15.10;75.50;;;;;;6195357;23;20315;-76
2022/05/06 08:11:52;;;;;;;;;;;15.20;76.30;;;;;;6220439;23;19962;-76
2022/05/06 08:14:17;;;;;;;;;;;15.20;76.20;;;;;;6220264;23;19939;-77
2022/05/06 08:16:44;;;;;;;;;;;15.20;75.80;;;;;;6195297;23;19946;-76
2022/05/06 08:19:09;;;;;;;;;;;15.40;76.20;;;;;;6170546;23;19916;-75
2022/05/06 08:21:38;;;;;;;;;;;15.50;76.70;;;;;;6195697;23;19922;-82
2022/05/06 08:24:10;;;;;;;;;;;15.70;74.90;;;;;;6200871;23;19926;-84
2022/05/06 08:26:43;;;;;;;;;;;15.90;74.20;;;;;;6225749;23;19923;-78
2022/05/06 08:29:09;;;;;;;;;;;16.00;73.70;;;;;;6218099;23;19934;-81
2022/05/06 08:31:37;;;;;;;;;;;16.20;72.70;;;;;;6195985;23;19986;-81
2022/05/06 08:34:25;;;;;;;;;;;16.30;73.30;;;;;;6194945;23;19918;-80
2022/05/06 08:36:54;;;;;;;;;;;16.40;71.80;;;;;;6219263;23;20324;-80
2022/05/06 08:39:20;;;;;;;;;;;16.50;71.10;;;;;;6194375;23;20340;-78
2022/05/06 08:41:47;;;;;;;;;;;16.80;70.40;;;;;;6220481;23;19912;-77
2022/05/06 08:55:43;;;;;;;;;;;17.80;65.80;;;;;;6128765;23;19920;-74
2022/05/06 09:02:00;;;;;;;;;;;;;;;;;;;;;
2022/05/06 09:05:03;;;;;;;;;;;18.20;64.80;;;;;;6153235;23;19923;-74
2022/05/06 09:17:59;;;;;;;;;;;18.70;61.90;;;;;;6097811;23;19913;-73
2022/05/06 09:24:57;;;;;;;;;;;;;;;;;;;;;
2022/05/06 09:42:18;;;;;;;;;;;19.50;58.50;;;;;;5897444;24;20366;-73
2022/05/06 09:44:57;;;;;;;;;;;19.50;58.20;;;;;;5913675;24;19915;-73
2022/05/06 09:47:25;;;;;;;;;;;19.60;58.20;;;;;;5985154;23;20410;-72
2022/05/06 10:03:33;;;;;;;;;;;19.70;59.00;;;;;;6038721;23;19913;-74
2022/05/06 10:06:38;;;;;;;;;;;19.90;57.70;;;;;;6037798;23;19912;-73
2022/05/06 10:13:27;;;;;;;;;;;20.20;58.40;;;;;;5845022;24;19979;-74
2022/05/06 10:24:01;;;;;;;;;;;20.70;56.40;;;;;;5082914;28;19924;-75
2022/05/06 10:26:40;;;;;;;;;;;21.00;56.80;;;;;;5038366;28;20012;-72
2022/05/06 10:32:27;;;;;;;;;;;20.70;55.90;;;;;;5052479;28;19924;-71
2022/05/06 10:35:02;;;;;;;;;;;20.70;55.80;;;;;;5042489;28;19932;-72
2022/05/06 10:37:38;;;;;;;;;;;20.60;56.10;;;;;;5036024;28;19917;-73
2022/05/06 10:40:23;;;;;;;;;;;20.70;55.30;;;;;;5035948;28;19917;-77
2022/05/06 10:49:35;;;;;;;;;;;21.30;53.60;;;;;;5002626;28;19971;-79
2022/05/06 11:05:58;;;;;;;;;;;20.60;55.80;;;;;;4933422;29;19933;-75
2022/05/06 11:12:16;;;;;;;;;;;20.50;54.30;;;;;;4949411;28;19926;-77
2022/05/06 11:18:16;;;;;;;;;;;20.60;55.40;;;;;;5012649;28;19921;-75
2022/05/06 11:20:41;;;;;;;;;;;20.70;55.50;;;;;;4987811;28;19917;-73
2022/05/06 11:30:00;;;;;;;;;;;21.50;54.80;;;;;;5007133;28;19916;-77
2022/05/06 11:32:33;;;;;;;;;;;21.70;54.10;;;;;;4996153;28;20371;-74
2022/05/06 11:35:16;;;;;;;;;;;;;;;;;;;;;
2022/05/06 11:37:51;;;;;;;;;;;22.40;53.20;;;;;;5018381;28;19921;-76
2022/05/06 11:40:35;;;;;;;;;;;22.60;53.40;;;;;;5033546;28;19924;-75
2022/05/06 11:49:51;;;;;;;;;;;22.50;50.20;;;;;;5037043;28;20362;-78
2022/05/06 11:52:17;;;;;;;;;;;22.70;50.10;;;;;;5020391;28;19995;-76
2022/05/06 11:54:55;;;;;;;;;;;22.50;50.90;;;;;;5038210;28;19921;-77
2022/05/06 11:57:21;;;;;;;;;;;22.70;50.90;;;;;;5021799;28;20326;-76
2022/05/06 11:59:47;;;;;;;;;;;22.50;50.70;;;;;;5021334;28;19959;-75
2022/05/06 12:02:12;;;;;;;;;;;22.40;50.20;;;;;;5037555;28;19916;-77
2022/05/06 12:04:41;;;;;;;;;;;22.40;51.50;;;;;;5021010;28;20179;-79
2022/05/06 12:07:10;;;;;;;;;;;22.60;51.60;;;;;;5037309;28;20384;-76
2022/05/06 12:09:45;;;;;;;;;;;22.70;50.90;;;;;;5038448;28;19925;-75
2022/05/06 12:19:19;;;;;;;;;;;22.90;51.40;;;;;;4950019;28;20438;-73
2022/05/06 12:21:45;;;;;;;;;;;23.00;49.90;;;;;;5037899;28;19917;-72
2022/05/06 12:24:10;;;;;;;;;;;23.00;50.30;;;;;;5036778;28;19916;-72
2022/05/06 12:26:37;;;;;;;;;;;22.90;50.10;;;;;;5020691;28;19963;-72
2022/05/06 12:29:19;;;;;;;;;;;22.90;50.30;;;;;;5021106;28;19916;-79
2022/05/06 12:31:45;;;;;;;;;;;22.80;50.90;;;;;;5037927;28;19924;-73
2022/05/06 12:34:10;;;;;;;;;;;22.90;50.20;;;;;;5020742;28;19920;-74
2022/05/06 12:36:37;;;;;;;;;;;22.80;50.70;;;;;;5037255;28;19921;-74
2022/05/06 12:39:19;;;;;;;;;;;22.90;49.80;;;;;;5036114;28;19916;-73
2022/05/06 12:41:45;;;;;;;;;;;22.60;50.50;;;;;;5023462;28;19962;-74
2022/05/06 12:44:16;;;;;;;;;;;22.60;51.60;;;;;;5043283;28;19972;-73
2022/05/06 12:46:41;;;;;;;;;;;22.60;51.30;;;;;;5030088;28;20281;-72
2022/05/06 12:51:52;;;;;;;;;;;22.50;50.90;;;;;;5038771;28;20363;-77
2022/05/06 12:54:17;;;;;;;;;;;22.50;51.00;;;;;;5020732;28;20011;-79
2022/05/06 12:56:49;;;;;;;;;;;22.50;51.00;;;;;;5020400;28;19975;-74
2022/05/06 12:59:26;;;;;;;;;;;22.50;51.00;;;;;;5009365;28;19923;-72
2022/05/06 13:02:18;;;;;;;;;;;22.50;51.20;;;;;;5016779;28;19917;-70
2022/05/06 13:04:43;;;;;;;;;;;22.50;50.30;;;;;;5023646;28;19924;-73
2022/05/06 13:07:09;;;;;;;;;;;22.40;50.50;;;;;;5028292;28;19916;-74
2022/05/06 13:09:35;;;;;;;;;;;22.50;50.20;;;;;;5033982;28;20361;-77
2022/05/06 13:12:03;;;;;;;;;;;22.60;50.60;;;;;;5002199;28;20245;-77
2022/05/06 13:14:29;;;;;;;;;;;22.50;50.90;;;;;;5034854;28;19925;-74
2022/05/06 13:16:55;;;;;;;;;;;22.50;50.50;;;;;;5012317;28;19947;-74
2022/05/06 13:29:35;;;;;;;;;;;22.50;50.00;;;;;;5051482;28;19991;-76
2022/05/06 13:41:58;;;;;;;;;;;22.50;49.50;;;;;;5044683;28;19917;-74
2022/05/06 13:44:24;;;;;;;;;;;22.60;50.20;;;;;;5037762;28;20250;-73
2022/05/06 13:46:51;;;;;;;;;;;22.80;49.60;;;;;;5034344;28;19920;-70
2022/05/06 13:49:17;;;;;;;;;;;22.70;49.80;;;;;;5026704;28;20040;-71
2022/05/06 13:51:43;;;;;;;;;;;22.80;48.60;;;;;;5034310;28;20015;-72
2022/05/06 13:54:08;;;;;;;;;;;22.90;49.00;;;;;;5033835;28;20383;-74
2022/05/06 13:59:18;;;;;;;;;;;22.80;49.10;;;;;;5030380;28;19923;-73
2022/05/06 14:01:44;;;;;;;;;;;23.00;48.00;;;;;;5034073;28;19928;-70
2022/05/06 14:04:11;;;;;;;;;;;23.00;48.80;;;;;;5017477;28;20003;-75
2022/05/06 14:06:36;;;;;;;;;;;22.70;48.70;;;;;;5033505;28;19917;-73
2022/05/06 14:09:02;;;;;;;;;;;22.70;49.30;;;;;;5051555;28;19923;-73
2022/05/06 14:11:30;;;;;;;;;;;22.70;49.50;;;;;;5034777;28;19945;-73
2022/05/06 14:13:56;;;;;;;;;;;23.00;48.70;;;;;;5034903;28;19925;-73
2022/05/06 14:16:22;;;;;;;;;;;23.00;49.70;;;;;;5035288;28;20007;-72
2022/05/06 14:18:48;;;;;;;;;;;23.00;48.70;;;;;;5054275;28;20397;-71
2022/05/06 14:21:14;;;;;;;;;;;23.10;48.00;;;;;;5030816;28;19975;-72
2022/05/06 14:30:32;;;;;;;;;;;23.40;47.80;;;;;;5050641;28;20387;-78
2022/05/06 14:39:38;;;;;;;;;;;23.40;47.30;;;;;;5323847;23;19984;-79
2022/05/06 15:06:53;;;;;;;;;;;24.00;46.90;;;;;;4961027;28;19961;-81
2022/05/06 15:12:43;;;;;;;;;;;24.60;45.20;;;;;;4961260;28;19949;-75
2022/05/06 15:15:10;;;;;;;;;;;24.70;45.20;;;;;;4955459;28;19926;-74
2022/05/06 15:17:36;;;;;;;;;;;24.60;45.00;;;;;;4950700;28;19929;-72
2022/05/06 15:20:21;;;;;;;;;;;24.40;44.50;;;;;;4952921;28;19923;-76
2022/05/06 15:22:58;;;;;;;;;;;24.40;44.40;;;;;;4949456;28;19946;-76
2022/05/06 15:25:24;;;;;;;;;;;24.40;44.40;;;;;;4958094;28;19918;-76
2022/05/06 15:27:49;;;;;;;;;;;24.40;43.70;;;;;;4973959;28;19918;-76
2022/05/06 15:30:15;;;;;;;;;;;24.30;44.00;;;;;;4949076;28;19918;-72
2022/05/06 15:36:13;;;;;;;;;;;24.50;43.90;;;;;;4893965;29;20304;-80
2022/05/06 15:38:47;;;;;;;;;;;24.70;43.30;;;;;;4883145;29;19923;-73
2022/05/06 15:44:45;;;;;;;;;;;;;;;;;;;;;
2022/05/06 15:53:01;;;;;;;;;;;24.70;41.50;;;;;;5351997;23;19922;-79
2022/05/06 15:58:51;;;;;;;;;;;24.60;41.30;;;;;;4884641;29;19918;-82
2022/05/06 16:01:17;;;;;;;;;;;24.30;42.70;;;;;;4933176;29;19998;-78
2022/05/06 16:08:51;;;;;;;7.40;5.47;;;22.70;45.90;;;;;;5027121;27;4102219;-74
2022/05/06 16:15:37;;;;;;;13.02;6.75;;;21.90;48.60;;;;;;5129758;27;20050;-83
2022/05/06 16:18:24;;;;;;;10.82;7.28;;;22.00;48.80;;;;;;5104811;27;20043;-82
2022/05/06 17:06:49;;;;;;;28.13;16.25;;;18.90;59.80;;;;;;5479523;22;20402;-74
2022/05/06 17:09:54;;;;;;;28.17;15.48;;;18.90;59.80;;;;;;5015394;28;20481;-77
2022/05/06 17:16:35;;;;;;;29.23;16.27;;;18.60;60.60;;;;;;4989653;28;20084;-77
2022/05/06 17:19:06;;;;;;;;;;;18.50;61.00;;;;;;4984397;28;20033;-78
2022/05/06 17:22:02;;;;;;;29.40;17.08;;;18.40;61.50;;;;;;4982437;28;19913;-80
2022/05/06 17:51:53;;;;;;;34.85;21.35;;;17.20;66.50;;;;;;5699007;23;20136;-80
2022/05/06 17:54:49;;;;;;;34.10;22.58;;;17.10;67.80;;;;;;5001579;28;20041;-79
2022/05/06 17:57:32;;;;;;;36.88;21.50;;;16.90;69.20;;;;;;5010152;28;20099;-77
2022/05/06 18:08:14;;;;;;;35.72;22.35;;;16.70;71.20;;;;;;5013241;28;20505;-78
2022/05/06 18:10:40;;;;;;;35.50;21.90;;;16.50;69.60;;;;;;4996990;28;20115;-76
2022/05/06 18:13:06;;;;;;;35.78;22.08;;;16.40;69.90;;;;;;4993522;28;20038;-73
2022/05/06 18:15:50;;;;;;;;;;;16.30;70.50;;;;;;5000351;28;20068;-78
2022/05/06 18:21:56;;;;;;;37.78;22.95;;;16.10;73.50;;;;;;5030674;28;20072;-73
2022/05/06 18:24:22;;;;;;;38.20;25.63;;;16.00;71.60;;;;;;5034546;28;20446;-71
2022/05/06 18:26:47;;;;;;;45.90;26.52;;;15.90;72.30;;;;;;5027825;28;20034;-71
2022/05/06 18:29:13;;;;;;;41.75;25.42;;;15.90;73.00;;;;;;5006669;28;20033;-74
2022/05/06 18:34:23;;;;;;;37.17;24.45;;;15.80;73.40;;;;;;5029544;28;20033;-73
2022/05/06 18:36:49;;;;;;;43.35;26.55;;;15.70;73.60;;;;;;5002599;28;20540;-74
2022/05/06 18:39:15;;;;;;;46.42;25.45;;;15.70;74.10;;;;;;5027217;28;20121;-74
2022/05/06 18:41:41;;;;;;;40.63;25.42;;;15.60;74.70;;;;;;5000054;28;20034;-75
2022/05/06 18:44:07;;;;;;;43.80;27.40;;;15.60;74.70;;;;;;5006472;28;20414;-75
2022/05/06 18:46:33;;;;;;;38.78;25.08;;;15.50;76.20;;;;;;5013307;28;20032;-76
2022/05/06 18:48:58;;;;;;;42.78;26.20;;;15.40;75.50;;;;;;5014413;28;20103;-75
2022/05/06 18:51:24;;;;;;;40.22;24.77;;;15.30;75.90;;;;;;5022307;28;20044;-75
2022/05/06 18:53:50;;;;;;;38.55;24.77;;;15.20;75.90;;;;;;5006322;28;20084;-74
2022/05/06 18:56:16;;;;;;;36.33;25.98;;;15.20;76.10;;;;;;5005846;28;20049;-74
2022/05/06 18:58:42;;;;;;;45.95;26.23;;;15.10;76.90;;;;;;5013336;28;20528;-77
2022/05/06 19:01:08;;;;;;;41.83;26.90;;;15.00;77.00;;;;;;5006002;28;20169;-75
2022/05/06 19:03:34;;;;;;;42.42;26.92;;;14.90;77.00;;;;;;5018003;28;20116;-72
2022/05/06 19:06:02;;;;;;;42.10;26.60;;;14.80;77.50;;;;;;5004678;28;20065;-74
2022/05/06 19:08:28;;;;;;;41.65;27.02;;;14.80;77.90;;;;;;5005867;28;20124;-70
2022/05/06 19:10:54;;;;;;;37.97;25.23;;;14.70;77.80;;;;;;5031944;28;20124;-71
2022/05/06 19:13:23;;;;;;;40.25;27.40;;;14.60;77.90;;;;;;5018581;28;20470;-74
2022/05/06 19:15:48;;;;;;;45.20;27.10;;;14.60;78.80;;;;;;5028809;28;20030;-71
2022/05/06 19:18:16;;;;;;;42.40;27.80;;;14.50;78.10;;;;;;5011435;28;20033;-69
2022/05/06 19:20:43;;;;;;;47.28;26.58;;;14.50;78.60;;;;;;5023085;28;20120;-71
2022/05/06 19:25:53;;;;;;;49.22;27.13;;;14.40;78.40;;;;;;5013109;28;20045;-71
2022/05/06 19:28:20;;;;;;;53.35;27.38;;;14.30;78.90;;;;;;5030210;28;20042;-71
2022/05/06 19:30:45;;;;;;;;;;;14.20;79.30;;;;;;5032366;28;20048;-71
2022/05/06 19:33:11;;;;;;;44.95;27.52;;;14.10;81.20;;;;;;5032438;28;20269;-73
2022/05/06 19:35:36;;;;;;;41.63;26.42;;;14.00;79.20;;;;;;5042179;28;20033;-72
2022/05/06 19:38:02;;;;;;;50.13;29.55;;;14.00;79.50;;;;;;5046501;28;20025;-71
2022/05/06 19:40:56;;;;;;;44.45;25.85;;;14.00;79.90;;;;;;5051660;28;20025;-78
2022/05/06 19:43:43;;;;;;;45.35;27.40;;;13.90;82.20;;;;;;5030524;28;20064;-77